KAFN/AFN METAR and TAF weather

Enter ICAO airport designator
Station Type Date Time Source
KAFN METAR 2020/12/01 21:52 UTC NOAA

KAFN 012152Z AUTO 18013G23KT 10SM BKN060 09/M02 A2950 RMK AO2 PK WND 20027/2142 SLP997 T00941022


Station Type Date Time Source
KAFN Decoded METAR 2020/12/01 21:52 UTC NOAA

JAFFREY MUNI-SILVER RANCH, NH, United States (KAFN) 42-48N 72-00W 313M
Dec 01, 2020 - 04:52 PM EST / 2020.12.01 2152 UTC
Wind: from the S (180 degrees) at 15 MPH (13 KT) gusting to 26 MPH (23 KT):0
Visibility: 10 mile(s):0
Sky conditions: mostly cloudy
Temperature: 48.9 F (9.4 C)
Dew Point: 28.0 F (-2.2 C)
Relative Humidity: 44%
Pressure (altimeter): 29.5 in. Hg (998 hPa)
ob: KAFN 012152Z AUTO 18013G23KT 10SM BKN060 09/M02 A2950 RMK AO2 PK WND 20027/2142 SLP997 T00941022
cycle: 22

Station Type Date Time Source
KAFN TAF UTC NOAA

Error!

Example: see airport list